• Join FlightAware (Why Join?)
  • Login
  • US Flag 
09:54PM EDT


 

Airport Tracker/Info


-or-


 

Live Flight TrackerFlight Track Log ✈ DAL1981 ✈ 26-Apr-2013 ✈ KALB - KATL

Flight Track Log - Related Links

Times and Time Zones

All times are in EDT time to prevent confusion due to time zone crossing. See the DAL1981 flight status page for this flight to view local times or setup timezone preferences in your user account.

Time Position Orientation Groundspeed Altitude Reporting Facility
EDT Latitude Longitude Course Direction KTS MPH feet Rate Location/Type
06:07AM 42.7714 -73.8061 180° South 163 188 1,700  Level Boston Center
06:08AM 42.8272 -73.8469 332° Northwest 215 247 4,000 2,220 Climbing Boston Center
06:09AM 42.8619 -73.9131 306° West 247 284 6,600 2,640 Climbing Boston Center
06:10AM 42.4365 -74.2382 198° South  Level Estimated
06:10AM 42.8967 -73.9706 310° West 229 264 9,200  Level Boston Center
06:11AM 42.3581 -74.3466 200° South  Level Estimated
06:11AM 42.9267 -74.0536 296° West 224 258 11,900  Level Boston Center
06:12AM 42.2795 -74.4547 180° South  Level Estimated
06:12AM 42.8825 -74.0836 206° Southwest 180 207 13,800  Level Boston Center
06:13AM 42.8011 -74.0814 179° South 209 241 14,200 780 Climbing Boston Center
06:14AM 42.6992 -74.0731 177° South 276 318 15,400 1,860 Climbing Boston Center
06:15AM 42.5869 -74.0589 175° South 358 412 18,000 1,980 Climbing Boston Center
06:16AM 42.4722 -74.0558 179° South 395 455 19,400 1,620 Climbing Boston Center
06:17AM 42.3517 -74.0414 175° South 418 481 21,300 1,560 Climbing Boston Center
06:18AM 42.2536 -74.0361 178° South 434 499 22,600 1,500 Climbing Boston Center
06:19AM 42.1222 -74.0439 183° South 458 527 24,400 2,040 Climbing Boston Center
06:20AM 41.9722 -74.0514 182° South 463 533 26,700 1,860 Climbing Boston Center
06:22AM 41.7175 -74.0669 183° South 461 531 30,000 1,380 Climbing New York Center
06:23AM 41.5903 -74.0717 182° South 462 532 30,900 1,380 Climbing New York Center
06:24AM 41.4817 -74.0803 183° South 457 526 32,800 1,020 Climbing New York Center
06:25AM 41.3608 -74.0853 182° South 452 520 33,000 480 Climbing New York Center
06:26AM 41.2356 -74.0928 183° South 452 520 33,800 480 Climbing New York Center
06:27AM 41.1242 -74.1369 197° South 417 480 34,000 60 Climbing New York Center
06:28AM 41.0478 -74.2486 228° Southwest 400 460 34,000 -60 Level New York Center
06:29AM 40.9756 -74.3686 231° Southwest 405 466 33,900  Descending New York Center
06:30AM 40.9011 -74.4828 229° Southwest 417 480 34,000  Climbing New York Center
06:31AM 40.8286 -74.6050 232° Southwest 422 486 34,000  Level New York Center
06:32AM 40.7561 -74.7186 230° Southwest 422 486 34,000 -60 Level New York Center
06:33AM 40.6833 -74.8322 230° Southwest 422 486 33,900  Descending New York Center
06:34AM 40.6106 -74.9508 231° Southwest 417 480 34,000  Climbing New York Center
06:35AM 40.5378 -75.0611 229° Southwest 417 480 34,000  Level New York Center
06:36AM 40.4644 -75.1819 231° Southwest 417 480 34,000  Level New York Center
06:37AM 40.3914 -75.2972 230° Southwest 417 480 34,000  Level New York Center
06:38AM 40.3203 -75.4125 231° Southwest 417 480 34,000  Level New York Center
06:39AM 40.2469 -75.5244 229° Southwest 417 480 34,000  Level New York Center
06:40AM 40.1817 -75.6422 234° Southwest 417 480 34,000  Level New York Center
06:41AM 40.1247 -75.7631 238° Southwest 405 466 34,000  Level New York Center
06:42AM 40.0631 -75.8861 237° Southwest 405 466 34,000 -60 Level New York Center
06:43AM 39.9972 -76.0061 234° Southwest 405 466 33,900  Descending New York Center
06:44AM 39.9397 -76.1264 238° Southwest 405 466 34,000  Climbing New York Center
06:45AM 39.8717 -76.2456 233° Southwest 407 468 34,000  Level New York Center
06:46AM 39.8019 -76.3589 231° Southwest 412 474 34,000  Level New York Center
06:47AM 39.7231 -76.4683 227° Southwest 386 444 34,000  Level Washington Center
06:48AM 39.6303 -76.5831 224° Southwest 407 468 34,000  Level Washington Center
06:49AM 39.5483 -76.6897 225° Southwest 412 474 34,000  Level Washington Center
06:50AM 39.4681 -76.7986 226° Southwest 412 474 34,000  Level Washington Center
06:51AM 39.3856 -76.9019 224° Southwest 412 474 34,000  Level Washington Center
06:52AM 39.3053 -77.0131 227° Southwest 412 474 34,000  Level Washington Center
06:53AM 39.2225 -77.1186 225° Southwest 417 480 34,000  Level Washington Center
06:54AM 39.1419 -77.2267 226° Southwest 422 486 34,000  Level Washington Center
06:55AM 39.0592 -77.3319 225° Southwest 422 486 34,000  Level Washington Center
06:56AM 38.9869 -77.4264 225° Southwest 422 486 34,000  Level Washington Center
06:57AM 38.8975 -77.5414 225° Southwest 422 486 34,000  Level Washington Center
06:58AM 38.8231 -77.6406 226° Southwest 422 486 34,000  Level Washington Center
06:59AM 38.7378 -77.7422 223° Southwest 422 486 34,000  Level Washington Center
07:00AM 38.6589 -77.8461 226° Southwest 422 486 34,000  Level Washington Center
07:01AM 38.5922 -77.9531 231° Southwest 411 473 34,000  Level Washington Center
07:02AM 38.5253 -78.0678 233° Southwest 401 461 34,000  Level Washington Center
07:03AM 38.4581 -78.1822 233° Southwest 401 461 34,000  Level Washington Center
07:04AM 38.3911 -78.2936 233° Southwest 406 467 34,000  Level Washington Center
07:05AM 38.3217 -78.4103 233° Southwest 406 467 34,000  Level Washington Center
07:06AM 38.2542 -78.5242 233° Southwest 406 467 34,000  Level Washington Center
07:07AM 38.1822 -78.6508 234° Southwest 406 467 34,000  Level Washington Center
07:08AM 38.1147 -78.7642 233° Southwest 406 467 34,000  Level Washington Center
07:09AM 38.0450 -78.8772 232° Southwest 406 467 34,000  Level Washington Center
07:10AM 37.9769 -78.9900 233° Southwest 406 467 34,000  Level Washington Center
07:11AM 37.9136 -79.0925 232° Southwest 406 467 34,000  Level Washington Center
07:12AM 37.8397 -79.1969 228° Southwest 406 467 34,000  Level Washington Center
07:13AM 37.7633 -79.3036 228° Southwest 411 473 34,000  Level Washington Center
07:14AM 37.6764 -79.4200 227° Southwest 417 480 34,000  Level Washington Center
07:15AM 37.6064 -79.5161 227° Southwest 417 480 34,000  Level Washington Center
07:16AM 37.5211 -79.6347 228° Southwest 417 480 34,000  Level Washington Center
07:17AM 37.4489 -79.7303 226° Southwest 417 480 34,000  Level Washington Center
07:18AM 37.3722 -79.8411 229° Southwest 430 495 34,000  Level Washington Center
07:19AM 37.2933 -79.9464 227° Southwest 425 489 34,000  Level Washington Center
07:20AM 37.2075 -80.0617 227° Southwest 425 489 34,000  Level Washington Center
07:21AM 37.1133 -80.1869 227° Southwest 413 475 34,000  Level Atlanta Center
07:22AM 37.0353 -80.2894 226° Southwest 408 470 34,000  Level Atlanta Center
07:23AM 36.9672 -80.3836 228° Southwest 408 470 34,000  Level Atlanta Center
07:24AM 36.8931 -80.4831 227° Southwest 408 470 34,000  Level Atlanta Center
07:25AM 36.8128 -80.5878 226° Southwest 408 470 34,000  Level Atlanta Center
07:26AM 36.7322 -80.6975 228° Southwest 398 458 34,000  Level Atlanta Center
07:27AM 36.6536 -80.7992 226° Southwest 398 458 34,000  Level Atlanta Center
07:28AM 36.5792 -80.9003 228° Southwest 403 464 34,000  Level Atlanta Center
07:29AM 36.5003 -81.0017 226° Southwest 403 464 34,000  Level Atlanta Center
07:30AM 36.4256 -81.1025 227° Southwest 409 471 34,000  Level Atlanta Center
07:31AM 36.3469 -81.2083 227° Southwest 409 471 34,000  Level Atlanta Center
07:32AM 36.2781 -81.2983 226° Southwest 409 471 34,000  Level Atlanta Center
07:33AM 36.2008 -81.3989 226° Southwest 404 465 34,000  Level Atlanta Center
07:34AM 36.1239 -81.5017 227° Southwest 404 465 34,000  Level Atlanta Center
07:35AM 36.0467 -81.6017 226° Southwest 399 459 34,000  Level Atlanta Center
07:36AM 35.9672 -81.7014 225° Southwest 409 471 34,000  Level Atlanta Center
07:37AM 35.8919 -81.8036 228° Southwest 400 460 34,000  Level Atlanta Center
07:38AM 35.8164 -81.8978 225° Southwest 400 460 34,000  Level Atlanta Center
07:39AM 35.7367 -81.9972 225° Southwest 408 470 34,000  Level Atlanta Center
07:40AM 35.6611 -82.0961 227° Southwest 408 470 34,000  Level Atlanta Center
07:41AM 35.5814 -82.1978 226° Southwest 408 470 34,000 -180 Level Atlanta Center
07:42AM 35.5036 -82.2939 225° Southwest 408 470 33,700 -840 Descending Atlanta Center
07:43AM 35.4111 -82.4003 223° Southwest 413 475 32,400 -1,260 Descending Atlanta Center
07:44AM 35.3267 -82.4936 222° Southwest 418 481 31,200 -1,080 Descending Atlanta Center
07:45AM 35.2567 -82.5711 222° Southwest 423 487 30,300 -1,020 Descending Atlanta Center
07:46AM 35.1600 -82.6769 222° Southwest 423 487 29,200 -660 Descending Atlanta Center
07:47AM 35.0733 -82.7697 221° Southwest 423 487 29,000 -120 Descending Atlanta Center
07:48AM 34.9886 -82.8650 223° Southwest 418 481 29,000 -600 Level Atlanta Center
07:49AM 34.9039 -82.9572 222° Southwest 418 481 27,800 -1,140 Descending Atlanta Center
07:50AM 34.8192 -83.0469 221° Southwest 411 473 26,800 -1,080 Descending Atlanta Center
07:51AM 34.7303 -83.1492 223° Southwest 406 467 25,700 -1,020 Descending Atlanta Center
07:52AM 34.6472 -83.2408 222° Southwest 406 467 24,800 -900 Descending Atlanta Center
07:53AM 34.5664 -83.3300 222° Southwest 401 461 24,000 -420 Descending Atlanta Center
07:54AM 34.4836 -83.4164 221° Southwest 401 461 24,000 -900 Level Atlanta Center
07:55AM 34.4025 -83.5050 222° Southwest 391 450 22,300 -1,320 Descending Atlanta Center
07:56AM 34.3256 -83.5886 222° Southwest 381 438 21,400 -1,680 Descending Atlanta Center
07:57AM 34.2486 -83.6719 222° Southwest 381 438 19,000 -2,520 Descending Atlanta Center
07:58AM 34.1758 -83.7525 222° Southwest 371 427 16,400 -2,460 Descending Atlanta Center
07:59AM 34.1008 -83.8281 220° Southwest 357 411 14,100 -1,320 Descending Atlanta Center
08:00AM 34.0333 -83.9000 221° Southwest 353 406 14,000 -960 Descending Atlanta TRACON
08:01AM 33.9667 -83.9667 220° Southwest 342 394 12,400 -1,020 Descending Atlanta TRACON
08:02AM 33.9000 -84.0500 226° Southwest 336 387 12,000 -240 Descending Atlanta TRACON
08:03AM 33.8333 -84.1167 220° Southwest 331 381 12,000  Level Atlanta TRACON
08:04AM 33.7500 -84.1667 207° Southwest 299 344 12,000  Level Atlanta TRACON
08:05AM 33.7333 -84.2333 253° West 277 319 12,000 -60 Level Atlanta TRACON
08:06AM 33.7333 -84.3333 270° West 273 314 11,900 -900 Descending Atlanta TRACON
08:07AM 33.7333 -84.4167 270° West 277 319 10,300 -1,860 Descending Atlanta TRACON
08:08AM 33.7333 -84.5000 270° West 267 307 8,400 -2,100 Descending Atlanta TRACON
08:09AM 33.7333 -84.5833 270° West 268 308 6,400 -1,740 Descending Atlanta TRACON
08:10AM 33.7333 -84.6667 270° West 253 291 5,200 -840 Descending Atlanta TRACON
08:11AM 33.7000 -84.7167 231° Southwest 219 252 4,800 -480 Descending Atlanta TRACON
08:12AM 33.6667 -84.6833 140° Southeast 196 226 4,400 -540 Descending Atlanta TRACON
08:13AM 33.6500 -84.6333 112° Southeast 177 204 3,800 -600 Descending Atlanta TRACON